createdAt,value
2018-06-21T00:00:12.261Z,99903.00
2018-06-21T00:02:42.055Z,99899.00
2018-06-21T00:05:12.016Z,99900.00
2018-06-21T00:07:42.020Z,99897.00
2018-06-21T00:10:12.000Z,99897.00
2018-06-21T00:12:41.987Z,99889.00
2018-06-21T00:15:12.019Z,99889.00
2018-06-21T00:17:41.988Z,99888.00
2018-06-21T00:20:11.936Z,99878.00
2018-06-21T00:22:42.131Z,99883.00
2018-06-21T00:25:12.062Z,99879.00
2018-06-21T00:27:42.086Z,99880.00
2018-06-21T00:30:11.965Z,99883.00
2018-06-21T00:32:42.078Z,99883.00
2018-06-21T00:35:11.988Z,99880.00
2018-06-21T00:37:41.908Z,99871.00
2018-06-21T00:40:11.818Z,99869.00
2018-06-21T00:42:41.866Z,99872.00
2018-06-21T00:45:11.894Z,99866.00
2018-06-21T00:47:42.118Z,99870.00
2018-06-21T00:50:12.058Z,99869.00
2018-06-21T00:52:42.089Z,99867.00
2018-06-21T00:55:11.957Z,99865.00
2018-06-21T00:57:41.946Z,99863.00
2018-06-21T01:00:11.893Z,99858.00
2018-06-21T01:02:41.907Z,99857.00
2018-06-21T01:05:11.774Z,99853.00
2018-06-21T01:07:41.955Z,99853.00
2018-06-21T01:10:11.858Z,99853.00
2018-06-21T01:12:41.773Z,99848.00
2018-06-21T01:15:11.752Z,99848.00
2018-06-21T01:17:42.397Z,99848.00
2018-06-21T01:20:12.327Z,99848.00
2018-06-21T01:22:42.206Z,99844.00
2018-06-21T01:25:12.183Z,99844.00
2018-06-21T01:27:42.044Z,99843.00
2018-06-21T01:30:11.954Z,99843.00
2018-06-21T01:32:41.876Z,99838.00
2018-06-21T01:35:11.854Z,99840.00
2018-06-21T01:37:41.758Z,99837.00
2018-06-21T01:40:11.658Z,99838.00
2018-06-21T01:42:41.578Z,99834.00
2018-06-21T01:45:11.508Z,99834.00
2018-06-21T01:47:41.415Z,99839.00
2018-06-21T01:50:11.320Z,99840.00
2018-06-21T01:52:41.290Z,99841.00
2018-06-21T01:55:11.196Z,99838.00
2018-06-21T01:57:41.095Z,99839.00
2018-06-21T02:00:11.042Z,99844.00
2018-06-21T02:02:41.826Z,99843.00
2018-06-21T02:05:11.694Z,99838.00
2018-06-21T02:07:41.990Z,99842.00
2018-06-21T02:10:11.921Z,99839.00
2018-06-21T02:12:41.846Z,99837.00
2018-06-21T02:15:11.778Z,99833.00
2018-06-21T02:17:41.738Z,99834.00
2018-06-21T02:20:11.736Z,99837.00
2018-06-21T02:22:41.594Z,99833.00
2018-06-21T02:25:11.535Z,99836.00
2018-06-21T02:27:41.521Z,99840.00
2018-06-21T02:30:11.450Z,99842.00
2018-06-21T02:32:42.010Z,99842.00
2018-06-21T02:35:11.943Z,99840.00
2018-06-21T02:37:41.852Z,99834.00
2018-06-21T02:40:11.881Z,99827.00
2018-06-21T02:42:41.762Z,99835.00
2018-06-21T02:45:11.677Z,99834.00
2018-06-21T02:47:41.722Z,99839.00
2018-06-21T02:50:11.731Z,99827.00
2018-06-21T02:52:41.684Z,99822.00
2018-06-21T02:55:11.566Z,99819.00
2018-06-21T02:57:41.473Z,99820.00
2018-06-21T03:00:11.374Z,99822.00
2018-06-21T03:02:41.820Z,99821.00
2018-06-21T03:05:12.331Z,99815.00
2018-06-21T03:10:19.079Z,99814.00
2018-06-21T03:12:48.991Z,99811.00
2018-06-21T03:15:18.965Z,99808.00
2018-06-21T03:17:48.896Z,99811.00
2018-06-21T03:20:18.821Z,99811.00
2018-06-21T03:22:48.958Z,99810.00
2018-06-21T03:25:18.944Z,99810.00
2018-06-21T03:27:48.841Z,99813.00
2018-06-21T03:30:18.750Z,99815.00
2018-06-21T03:32:48.655Z,99816.00
2018-06-21T03:35:18.580Z,99815.00
2018-06-21T03:37:48.525Z,99817.00
2018-06-21T03:40:18.456Z,99819.00
2018-06-21T03:42:48.383Z,99806.00
2018-06-21T03:45:18.307Z,99804.00
2018-06-21T03:47:48.346Z,99804.00
2018-06-21T03:50:18.203Z,99808.00
2018-06-21T03:52:48.102Z,99806.00
2018-06-21T03:55:18.782Z,99808.00
2018-06-21T03:57:48.685Z,99808.00
2018-06-21T04:00:18.662Z,99813.00
2018-06-21T04:02:48.982Z,99812.00
2018-06-21T04:05:18.940Z,99816.00
2018-06-21T04:07:49.219Z,99818.00
2018-06-21T04:10:19.131Z,99828.00
2018-06-21T04:12:49.682Z,99821.00
2018-06-21T04:15:19.610Z,99813.00
2018-06-21T04:17:49.693Z,99819.00
2018-06-21T04:20:19.609Z,99814.00
2018-06-21T04:22:49.594Z,99812.00
2018-06-21T04:25:19.458Z,99816.00
2018-06-21T04:27:49.453Z,99808.00
2018-06-21T04:30:19.477Z,99817.00
2018-06-21T04:32:49.414Z,99819.00
2018-06-21T04:35:19.281Z,99816.00
2018-06-21T04:37:49.290Z,99805.00
2018-06-21T04:40:19.166Z,99796.00
2018-06-21T04:42:49.227Z,99796.00
2018-06-21T04:45:19.106Z,99794.00
2018-06-21T04:47:49.025Z,99798.00
2018-06-21T04:50:19.010Z,99802.00
2018-06-21T04:52:50.010Z,99797.00
2018-06-21T04:55:20.403Z,99793.00
2018-06-21T04:57:50.370Z,99796.00
2018-06-21T05:00:20.926Z,99799.00
2018-06-21T05:02:52.638Z,99792.00
2018-06-21T05:05:23.309Z,99790.00
2018-06-21T05:07:53.685Z,99789.00
2018-06-21T05:10:23.774Z,99786.00
2018-06-21T05:12:53.794Z,99790.00
2018-06-21T05:15:23.654Z,99791.00
2018-06-21T05:17:53.554Z,99788.00
2018-06-21T05:20:23.462Z,99793.00
2018-06-21T05:22:53.417Z,99792.00
2018-06-21T05:25:23.272Z,99795.00
2018-06-21T05:27:53.190Z,99794.00
2018-06-21T05:30:23.106Z,99797.00
2018-06-21T05:32:53.123Z,99803.00
2018-06-21T05:35:23.048Z,99810.00
2018-06-21T05:37:52.982Z,99814.00
2018-06-21T05:40:36.472Z,99802.00
2018-06-21T05:43:06.658Z,99799.00
2018-06-21T05:45:36.578Z,99806.00
2018-06-21T05:48:06.619Z,99802.00
2018-06-21T05:50:36.506Z,99791.00
2018-06-21T05:53:06.550Z,99786.00
2018-06-21T05:55:37.682Z,99787.00
2018-06-21T05:58:07.606Z,99790.00
2018-06-21T06:00:37.508Z,99790.00
2018-06-21T06:03:07.719Z,99785.00
2018-06-21T06:05:37.598Z,99790.00
2018-06-21T06:08:07.654Z,99791.00
2018-06-21T06:10:37.511Z,99796.00
2018-06-21T06:13:07.545Z,99798.00
2018-06-21T06:15:37.471Z,99802.00
2018-06-21T06:18:07.349Z,99798.00
2018-06-21T06:20:37.263Z,99800.00
2018-06-21T06:23:07.187Z,99801.00
2018-06-21T06:25:37.114Z,99797.00
2018-06-21T06:28:07.149Z,99792.00
2018-06-21T06:30:37.144Z,99800.00
2018-06-21T06:33:07.072Z,99797.00
2018-06-21T06:35:36.962Z,99796.00
2018-06-21T06:38:06.875Z,99788.00
2018-06-21T06:40:36.770Z,99792.00
2018-06-21T06:43:06.680Z,99785.00
2018-06-21T06:45:36.575Z,99787.00
2018-06-21T06:48:06.745Z,99778.00
2018-06-21T06:50:36.748Z,99780.00
2018-06-21T06:53:06.683Z,99776.00
2018-06-21T06:55:36.599Z,99779.00
2018-06-21T06:58:07.079Z,99779.00
2018-06-21T07:00:36.982Z,99771.00
2018-06-21T07:03:06.905Z,99770.00
2018-06-21T07:05:36.810Z,99773.00
2018-06-21T07:08:06.787Z,99766.00
2018-06-21T07:10:36.677Z,99755.00
2018-06-21T07:13:06.605Z,99758.00
2018-06-21T07:15:36.531Z,99750.00
2018-06-21T07:18:06.481Z,99752.00
2018-06-21T07:20:36.456Z,99753.00
2018-06-21T07:23:06.367Z,99755.00
2018-06-21T07:25:36.267Z,99758.00
2018-06-21T07:28:06.693Z,99762.00
2018-06-21T07:30:36.656Z,99760.00
2018-06-21T07:33:06.587Z,99752.00
2018-06-21T07:35:36.512Z,99754.00
2018-06-21T07:38:06.510Z,99756.00
2018-06-21T07:40:36.472Z,99753.00
2018-06-21T07:43:06.350Z,99752.00
2018-06-21T07:45:36.257Z,99757.00
2018-06-21T07:48:06.161Z,99752.00
2018-06-21T07:50:36.073Z,99750.00
2018-06-21T07:53:06.409Z,99750.00
2018-06-21T07:55:36.311Z,99751.00
2018-06-21T07:58:06.218Z,99747.00
2018-06-21T08:00:36.240Z,99744.00
2018-06-21T08:03:06.162Z,99744.00
2018-06-21T08:05:36.075Z,99743.00
2018-06-21T08:08:06.041Z,99742.00
2018-06-21T08:10:35.945Z,99744.00
2018-06-21T08:13:05.875Z,99743.00
2018-06-21T08:15:35.790Z,99757.00
2018-06-21T08:18:06.116Z,99756.00
2018-06-21T08:20:36.043Z,99755.00
2018-06-21T08:23:06.176Z,99751.00
2018-06-21T08:25:36.102Z,99761.00
2018-06-21T08:28:06.161Z,99756.00
2018-06-21T08:30:36.219Z,99751.00
2018-06-21T08:33:06.155Z,99749.00
2018-06-21T08:35:36.126Z,99742.00
2018-06-21T08:38:06.025Z,99742.00
2018-06-21T08:40:35.937Z,99748.00
2018-06-21T08:43:06.076Z,99756.00
2018-06-21T08:45:36.041Z,99763.00
2018-06-21T08:48:05.785Z,99764.00
2018-06-21T08:50:35.590Z,99763.00
2018-06-21T08:53:05.519Z,99765.00
2018-06-21T08:55:35.397Z,99764.00
2018-06-21T08:58:05.582Z,99759.00
2018-06-21T09:00:35.442Z,99764.00
2018-06-21T09:03:05.361Z,99763.00
2018-06-21T09:05:35.263Z,99761.00
2018-06-21T09:08:05.386Z,99762.00
2018-06-21T09:10:35.401Z,99761.00
2018-06-21T09:13:05.369Z,99757.00
2018-06-21T09:15:35.295Z,99763.00
2018-06-21T09:18:05.339Z,99766.00
2018-06-21T09:20:35.289Z,99765.00
2018-06-21T09:23:05.277Z,99761.00
2018-06-21T09:25:35.205Z,99759.00
2018-06-21T09:28:05.134Z,99768.00
2018-06-21T09:30:34.994Z,99766.00
2018-06-21T09:33:04.914Z,99761.00
2018-06-21T09:35:34.842Z,99767.00
2018-06-21T09:38:13.760Z,99755.00
2018-06-21T09:40:48.884Z,99763.00
2018-06-21T09:43:24.265Z,99768.00
2018-06-21T09:45:59.517Z,99767.00
2018-06-21T09:48:30.731Z,99772.00
2018-06-21T09:51:01.354Z,99773.00
2018-06-21T09:53:31.258Z,99769.00
2018-06-21T09:56:01.309Z,99775.00
2018-06-21T09:58:31.226Z,99772.00
2018-06-21T10:01:02.935Z,99779.00
2018-06-21T10:03:33.590Z,99775.00
2018-06-21T10:06:03.509Z,99777.00
2018-06-21T10:08:33.402Z,99771.00
2018-06-21T10:11:03.321Z,99767.00
2018-06-21T10:13:33.235Z,99764.00
2018-06-21T10:16:03.166Z,99769.00
2018-06-21T10:18:32.837Z,99775.00
2018-06-21T10:21:02.595Z,99776.00
2018-06-21T10:23:32.522Z,99771.00
2018-06-21T10:26:02.438Z,99770.00
2018-06-21T10:28:32.347Z,99771.00
2018-06-21T10:31:02.294Z,99764.00
2018-06-21T10:33:32.186Z,99775.00
2018-06-21T10:36:02.230Z,99774.00
2018-06-21T10:38:32.178Z,99783.00
2018-06-21T10:41:02.145Z,99788.00
2018-06-21T10:43:32.076Z,99785.00
2018-06-21T10:46:01.966Z,99789.00
2018-06-21T10:48:31.902Z,99771.00
2018-06-21T10:51:01.803Z,99771.00
2018-06-21T10:53:31.751Z,99779.00
2018-06-21T10:56:01.644Z,99780.00
2018-06-21T10:58:31.634Z,99776.00
2018-06-21T11:01:01.566Z,99767.00
2018-06-21T11:03:31.491Z,99776.00
2018-06-21T11:06:01.408Z,99771.00
2018-06-21T11:08:31.404Z,99779.00
2018-06-21T11:11:01.355Z,99772.00
2018-06-21T11:13:31.535Z,99805.00
2018-06-21T11:16:02.511Z,99818.00
2018-06-21T11:18:32.486Z,99830.00
2018-06-21T11:21:02.442Z,99827.00
2018-06-21T11:23:32.423Z,99844.00
2018-06-21T11:26:02.339Z,99855.00
2018-06-21T11:28:32.406Z,99858.00
2018-06-21T11:31:02.350Z,99854.00
2018-06-21T11:33:32.290Z,99856.00
2018-06-21T11:36:02.196Z,99872.00
2018-06-21T11:38:31.889Z,99871.00
2018-06-21T11:41:01.661Z,99866.00
2018-06-21T11:43:31.578Z,99873.00
2018-06-21T11:46:01.479Z,99870.00
2018-06-21T11:48:31.381Z,99875.00
2018-06-21T11:51:01.297Z,99876.00
2018-06-21T11:53:31.207Z,99881.00
2018-06-21T11:56:01.106Z,99890.00
2018-06-21T11:58:31.006Z,99895.00
2018-06-21T12:01:00.974Z,99899.00
2018-06-21T12:03:30.864Z,99909.00
2018-06-21T12:06:00.770Z,99912.00
2018-06-21T12:08:30.680Z,99917.00
2018-06-21T12:11:00.921Z,99912.00
2018-06-21T12:13:30.851Z,99914.00
2018-06-21T12:16:00.747Z,99914.00
2018-06-21T12:18:30.644Z,99909.00
2018-06-21T12:21:00.599Z,99912.00
2018-06-21T12:23:30.486Z,99916.00
2018-06-21T12:26:01.948Z,99918.00
2018-06-21T12:28:32.040Z,99916.00
2018-06-21T12:31:01.742Z,99917.00
2018-06-21T12:33:31.533Z,99922.00
2018-06-21T12:36:01.449Z,99913.00
2018-06-21T12:38:31.346Z,99917.00
2018-06-21T12:41:01.268Z,99903.00
2018-06-21T12:43:31.226Z,99891.00
2018-06-21T12:46:01.229Z,99886.00
2018-06-21T12:48:31.078Z,99884.00
2018-06-21T12:51:00.994Z,99871.00
2018-06-21T12:53:30.995Z,99879.00
2018-06-21T12:56:00.925Z,99875.00
2018-06-21T12:58:30.830Z,99879.00
2018-06-21T13:01:00.759Z,99881.00
2018-06-21T13:03:30.658Z,99885.00
2018-06-21T13:06:00.571Z,99889.00
2018-06-21T13:08:47.381Z,99888.00
2018-06-21T13:12:35.346Z,99886.00
2018-06-21T13:15:05.981Z,99888.00
2018-06-21T13:17:36.129Z,99888.00
2018-06-21T13:20:06.361Z,99887.00
2018-06-21T13:22:36.341Z,99890.00
2018-06-21T13:25:06.338Z,99890.00
2018-06-21T13:27:36.277Z,99881.00
2018-06-21T13:30:08.430Z,99879.00
2018-06-21T13:32:38.418Z,99880.00
2018-06-21T13:35:08.430Z,99876.00
2018-06-21T13:37:38.398Z,99886.00
2018-06-21T13:40:08.293Z,99887.00
2018-06-21T13:42:38.212Z,99888.00
2018-06-21T13:45:08.115Z,99883.00
2018-06-21T13:47:38.045Z,99878.00
2018-06-21T13:50:08.315Z,99877.00
2018-06-21T13:52:38.502Z,99889.00
2018-06-21T13:55:08.357Z,99897.00
2018-06-21T13:57:38.370Z,99901.00
2018-06-21T14:00:08.435Z,99894.00
2018-06-21T14:02:38.365Z,99894.00
2018-06-21T14:05:08.259Z,99890.00
2018-06-21T14:07:38.266Z,99897.00
2018-06-21T14:10:08.673Z,99900.00
2018-06-21T14:12:38.582Z,99904.00
2018-06-21T14:15:08.538Z,99912.00
2018-06-21T14:17:38.477Z,99915.00
2018-06-21T14:20:08.380Z,99925.00
2018-06-21T14:22:38.291Z,99923.00
2018-06-21T14:25:08.198Z,99925.00
2018-06-21T14:27:38.109Z,99924.00
2018-06-21T14:30:08.078Z,99922.00
2018-06-21T14:32:37.972Z,99925.00
2018-06-21T14:35:07.836Z,99929.00
2018-06-21T14:37:37.742Z,99925.00
2018-06-21T14:40:07.678Z,99925.00
2018-06-21T14:42:37.583Z,99931.00
2018-06-21T14:45:07.491Z,99934.00
2018-06-21T14:47:37.440Z,99930.00
2018-06-21T14:50:07.670Z,99938.00
2018-06-21T14:52:38.016Z,99928.00
2018-06-21T14:55:07.945Z,99930.00
2018-06-21T14:57:37.842Z,99925.00
2018-06-21T15:00:07.737Z,99925.00
2018-06-21T15:02:37.851Z,99926.00
2018-06-21T15:05:08.193Z,99938.00
2018-06-21T15:07:38.160Z,99932.00
2018-06-21T15:10:08.230Z,99932.00
2018-06-21T15:12:38.174Z,99939.00
2018-06-21T15:15:08.094Z,99941.00
2018-06-21T15:17:38.113Z,99948.00
2018-06-21T15:20:08.049Z,99949.00
2018-06-21T15:22:38.130Z,99936.00
2018-06-21T15:25:08.112Z,99947.00
2018-06-21T15:27:37.983Z,99953.00
2018-06-21T15:30:07.969Z,99949.00
2018-06-21T15:32:37.834Z,99953.00
2018-06-21T15:35:07.747Z,99963.00
2018-06-21T15:37:37.666Z,99976.00
2018-06-21T15:40:07.611Z,99972.00
2018-06-21T15:42:37.493Z,99977.00
2018-06-21T15:45:07.396Z,99981.00
2018-06-21T15:47:37.298Z,99977.00
2018-06-21T15:50:07.251Z,99984.00
2018-06-21T15:52:37.406Z,99983.00
2018-06-21T15:55:07.426Z,99984.00
2018-06-21T15:57:37.332Z,99978.00
2018-06-21T16:00:07.420Z,99991.00
2018-06-21T16:02:37.286Z,99989.00
2018-06-21T16:05:07.413Z,99989.00
2018-06-21T16:07:37.537Z,99998.00
2018-06-21T16:10:07.766Z,100000.00
2018-06-21T16:12:37.678Z,100006.00
2018-06-21T16:15:07.821Z,99996.00
2018-06-21T16:17:37.984Z,100001.00
2018-06-21T16:20:07.887Z,100002.00
2018-06-21T16:22:37.798Z,100003.00
2018-06-21T16:25:07.709Z,100006.00
2018-06-21T16:27:37.630Z,100010.00
2018-06-21T16:30:07.579Z,100011.00
2018-06-21T16:32:37.489Z,100019.00
2018-06-21T16:35:07.427Z,100022.00
2018-06-21T16:37:37.350Z,100021.00
2018-06-21T16:40:07.268Z,100020.00
2018-06-21T16:42:37.178Z,100021.00
2018-06-21T16:45:07.114Z,100020.00
2018-06-21T16:47:37.084Z,100025.00
2018-06-21T16:50:07.013Z,100021.00
2018-06-21T16:52:36.874Z,100029.00
2018-06-21T16:55:06.789Z,100034.00
2018-06-21T16:57:36.705Z,100033.00
2018-06-21T17:00:06.623Z,100045.00
2018-06-21T17:02:36.547Z,100046.00
2018-06-21T17:05:06.522Z,100045.00
2018-06-21T17:07:36.433Z,100049.00
2018-06-21T17:10:06.442Z,100047.00
2018-06-21T17:12:36.326Z,100051.00
2018-06-21T17:15:06.466Z,100062.00
2018-06-21T17:17:36.447Z,100062.00
2018-06-21T17:20:06.953Z,100064.00
2018-06-21T17:22:37.389Z,100066.00
2018-06-21T17:25:07.578Z,100077.00
2018-06-21T17:27:37.499Z,100086.00
2018-06-21T17:30:07.451Z,100077.00
2018-06-21T17:32:37.491Z,100093.00
2018-06-21T17:35:08.558Z,100098.00
2018-06-21T17:37:38.476Z,100098.00
2018-06-21T17:40:08.391Z,100103.00
2018-06-21T17:42:38.306Z,100108.00
2018-06-21T17:45:08.218Z,100112.00
2018-06-21T17:47:38.137Z,100119.00
2018-06-21T17:50:08.049Z,100121.00
2018-06-21T17:52:37.970Z,100130.00
2018-06-21T17:55:07.878Z,100127.00
2018-06-21T17:57:37.793Z,100133.00
2018-06-21T18:00:07.722Z,100131.00
2018-06-21T18:02:37.678Z,100141.00
2018-06-21T18:05:07.662Z,100145.00
2018-06-21T18:07:37.582Z,100145.00
2018-06-21T18:10:07.505Z,100148.00
2018-06-21T18:12:37.403Z,100156.00
2018-06-21T18:15:07.315Z,100158.00
2018-06-21T18:17:37.225Z,100164.00
2018-06-21T18:20:07.158Z,100160.00
2018-06-21T18:22:37.591Z,100164.00
2018-06-21T18:25:08.450Z,100175.00
2018-06-21T18:27:38.382Z,100175.00
2018-06-21T18:30:08.490Z,100182.00
2018-06-21T18:32:38.442Z,100200.00
2018-06-21T18:35:08.502Z,100190.00
2018-06-21T18:37:38.408Z,100202.00
2018-06-21T18:40:08.406Z,100202.00
2018-06-21T18:42:39.258Z,100205.00
2018-06-21T18:45:09.515Z,100220.00
2018-06-21T18:47:39.734Z,100221.00
2018-06-21T18:50:09.674Z,100219.00
2018-06-21T18:52:39.597Z,100223.00
2018-06-21T18:55:09.512Z,100228.00
2018-06-21T18:57:39.423Z,100236.00
2018-06-21T19:00:10.178Z,100234.00
2018-06-21T19:02:40.362Z,100248.00
2018-06-21T19:05:10.274Z,100251.00
2018-06-21T19:07:42.021Z,100243.00
2018-06-21T19:10:17.130Z,100265.00
2018-06-21T19:12:53.253Z,100266.00
2018-06-21T19:15:23.166Z,100270.00
2018-06-21T19:17:53.083Z,100287.00
2018-06-21T19:20:23.022Z,100289.00
2018-06-21T19:22:52.935Z,100297.00
2018-06-21T19:25:22.848Z,100302.00
2018-06-21T19:27:52.590Z,100310.00
2018-06-21T19:30:22.388Z,100316.00
2018-06-21T19:32:52.636Z,100318.00
2018-06-21T19:35:23.443Z,100330.00
2018-06-21T19:37:53.602Z,100329.00
2018-06-21T19:40:23.509Z,100330.00
2018-06-21T19:42:53.636Z,100333.00
2018-06-21T19:45:23.531Z,100349.00
2018-06-21T19:47:53.442Z,100349.00
2018-06-21T19:50:23.348Z,100352.00
2018-06-21T19:52:53.258Z,100363.00
2018-06-21T19:55:23.306Z,100369.00
2018-06-21T19:57:53.414Z,100373.00
2018-06-21T20:00:23.335Z,100379.00
2018-06-21T20:02:59.575Z,100379.00
2018-06-21T20:05:29.975Z,100389.00
2018-06-21T20:07:59.877Z,100387.00
2018-06-21T20:10:29.793Z,100397.00
2018-06-21T20:12:59.698Z,100398.00
2018-06-21T20:15:30.628Z,100395.00
2018-06-21T20:18:00.539Z,100403.00
2018-06-21T20:20:33.470Z,100398.00
2018-06-21T20:23:03.378Z,100411.00
2018-06-21T20:25:33.289Z,100419.00
2018-06-21T20:28:03.195Z,100426.00
2018-06-21T20:30:33.110Z,100434.00
2018-06-21T20:33:03.011Z,100441.00
2018-06-21T20:35:32.930Z,100438.00
2018-06-21T20:38:02.840Z,100444.00
2018-06-21T20:40:32.754Z,100451.00
2018-06-21T20:43:03.366Z,100450.00
2018-06-21T20:45:33.580Z,100458.00
2018-06-21T20:48:03.717Z,100453.00
2018-06-21T20:50:33.627Z,100461.00
2018-06-21T20:53:03.529Z,100464.00
2018-06-21T20:55:33.451Z,100467.00
2018-06-21T20:58:03.374Z,100471.00
2018-06-21T21:00:33.282Z,100479.00
2018-06-21T21:03:03.294Z,100476.00
2018-06-21T21:05:33.280Z,100481.00
2018-06-21T21:08:03.543Z,100489.00
2018-06-21T21:10:33.414Z,100480.00
2018-06-21T21:13:03.318Z,100489.00
2018-06-21T21:15:33.201Z,100488.00
2018-06-21T21:18:03.117Z,100495.00
2018-06-21T21:20:32.993Z,100496.00
2018-06-21T21:23:02.937Z,100498.00
2018-06-21T21:25:32.779Z,100495.00
2018-06-21T21:28:02.667Z,100497.00
2018-06-21T21:30:32.574Z,100502.00
2018-06-21T21:33:02.486Z,100511.00
2018-06-21T21:35:32.374Z,100514.00
2018-06-21T21:38:02.267Z,100522.00
2018-06-21T21:40:32.154Z,100526.00
2018-06-21T21:43:02.050Z,100525.00
2018-06-21T21:45:31.927Z,100527.00
2018-06-21T21:48:01.822Z,100530.00
2018-06-21T21:50:31.748Z,100534.00
2018-06-21T21:53:01.599Z,100540.00
2018-06-21T21:55:31.478Z,100537.00
2018-06-21T21:58:01.854Z,100547.00
2018-06-21T22:00:48.087Z,100548.00
2018-06-21T22:03:17.986Z,100548.00
2018-06-21T22:05:47.873Z,100552.00
2018-06-21T22:08:17.772Z,100556.00
2018-06-21T22:10:48.129Z,100554.00
2018-06-21T22:13:18.275Z,100557.00
2018-06-21T22:15:48.045Z,100558.00
2018-06-21T22:18:17.929Z,100563.00
2018-06-21T22:20:47.805Z,100571.00
2018-06-21T22:23:17.706Z,100567.00
2018-06-21T22:25:47.602Z,100567.00
2018-06-21T22:28:17.507Z,100573.00
2018-06-21T22:30:47.390Z,100577.00
2018-06-21T22:33:17.279Z,100573.00
2018-06-21T22:35:47.165Z,100573.00
2018-06-21T22:38:17.155Z,100574.00
2018-06-21T22:40:47.083Z,100574.00
2018-06-21T22:43:16.950Z,100580.00
2018-06-21T22:45:46.821Z,100588.00
2018-06-21T22:48:16.729Z,100588.00
2018-06-21T22:50:46.695Z,100594.00
2018-06-21T22:53:16.550Z,100599.00
2018-06-21T22:55:46.438Z,100598.00
2018-06-21T22:58:16.322Z,100602.00
2018-06-21T23:00:46.205Z,100598.00
2018-06-21T23:03:16.122Z,100599.00
2018-06-21T23:05:46.014Z,100598.00
2018-06-21T23:08:15.917Z,100595.00
2018-06-21T23:10:45.799Z,100597.00
2018-06-21T23:13:15.701Z,100599.00
2018-06-21T23:15:45.588Z,100602.00
2018-06-21T23:18:31.249Z,100603.00
2018-06-21T23:21:01.131Z,100602.00
2018-06-21T23:23:31.014Z,100600.00
2018-06-21T23:26:00.896Z,100609.00
2018-06-21T23:28:30.812Z,100609.00
2018-06-21T23:31:00.759Z,100610.00
2018-06-21T23:33:30.826Z,100604.00
2018-06-21T23:36:01.618Z,100602.00
2018-06-21T23:38:31.557Z,100606.00
2018-06-21T23:41:01.447Z,100614.00
2018-06-21T23:43:31.349Z,100611.00
2018-06-21T23:46:01.214Z,100617.00
2018-06-21T23:48:31.106Z,100617.00
2018-06-21T23:51:00.987Z,100623.00
2018-06-21T23:53:30.866Z,100621.00
2018-06-21T23:56:00.756Z,100622.00
2018-06-21T23:58:30.658Z,100628.00
